createdAt,value
2022-09-23T00:00:46.547Z,9.13
2022-09-23T00:03:14.626Z,11.05
2022-09-23T00:05:41.651Z,8.55
2022-09-23T00:08:10.864Z,7.93
2022-09-23T00:10:38.860Z,7.60
2022-09-23T00:13:06.342Z,6.65
2022-09-23T00:15:37.840Z,9.23
2022-09-23T00:18:04.994Z,7.60
2022-09-23T00:20:33.573Z,7.72
2022-09-23T00:23:00.704Z,9.70
2022-09-23T00:25:29.785Z,8.13
2022-09-23T00:27:56.763Z,9.60
2022-09-23T00:30:23.855Z,8.20
2022-09-23T00:32:52.964Z,7.53
2022-09-23T00:35:20.147Z,7.75
2022-09-23T00:37:46.955Z,9.75
2022-09-23T00:40:13.908Z,13.10
2022-09-23T00:42:51.332Z,12.55
2022-09-23T00:45:18.673Z,10.90
2022-09-23T00:48:05.862Z,10.57
2022-09-23T00:50:37.703Z,9.13
2022-09-23T00:53:07.013Z,9.32
2022-09-23T00:55:37.533Z,11.02
2022-09-23T00:58:06.027Z,12.13
2022-09-23T01:00:36.015Z,11.68
2022-09-23T01:03:05.254Z,11.55
2022-09-23T01:05:33.109Z,11.85
2022-09-23T01:08:00.731Z,10.80
2022-09-23T01:10:29.958Z,10.15
2022-09-23T01:13:19.129Z,10.40
2022-09-23T01:15:51.337Z,10.95
2022-09-23T01:18:21.340Z,10.70
2022-09-23T01:21:00.275Z,11.45
2022-09-23T01:23:36.326Z,13.13
2022-09-23T01:26:20.322Z,13.13
2022-09-23T01:28:50.346Z,10.50
2022-09-23T01:31:20.152Z,11.23
2022-09-23T01:33:52.182Z,11.45
2022-09-23T01:36:23.791Z,11.18
2022-09-23T01:38:59.192Z,10.15
2022-09-23T01:41:29.230Z,10.93
2022-09-23T01:43:59.041Z,13.32
2022-09-23T01:46:52.056Z,10.02
2022-09-23T01:49:52.173Z,10.57
2022-09-23T01:52:40.068Z,11.80
2022-09-23T01:55:23.374Z,10.05
2022-09-23T01:57:55.584Z,8.52
2022-09-23T02:00:23.168Z,10.88
2022-09-23T02:02:52.515Z,8.43
2022-09-23T02:05:25.620Z,8.02
2022-09-23T02:07:58.126Z,9.52
2022-09-23T02:10:25.195Z,10.82
2022-09-23T02:12:54.233Z,7.82
2022-09-23T02:15:23.698Z,8.70
2022-09-23T02:17:55.838Z,9.48
2022-09-23T02:20:25.070Z,8.68
2022-09-23T02:23:01.770Z,10.20
2022-09-23T02:25:37.867Z,12.98
2022-09-23T02:28:08.101Z,10.88
2022-09-23T02:30:40.568Z,9.90
2022-09-23T02:33:20.527Z,10.90
2022-09-23T02:35:48.998Z,13.77
2022-09-23T02:38:34.583Z,16.35
2022-09-23T02:41:07.504Z,10.10
2022-09-23T02:43:36.674Z,14.07
2022-09-23T02:46:04.752Z,11.25
2022-09-23T02:48:38.183Z,12.13
2022-09-23T02:51:05.282Z,11.73
2022-09-23T02:53:35.022Z,13.80
2022-09-23T02:56:02.502Z,11.52
2022-09-23T02:58:30.088Z,9.98
2022-09-23T03:01:05.155Z,11.10
2022-09-23T03:03:35.188Z,12.02
2022-09-23T03:06:05.299Z,8.15
2022-09-23T03:08:44.636Z,10.00
2022-09-23T03:11:13.191Z,9.77
2022-09-23T03:13:58.617Z,7.75
2022-09-23T03:16:28.626Z,8.02
2022-09-23T03:19:12.906Z,10.40
2022-09-23T03:21:46.609Z,9.85
2022-09-23T03:24:14.606Z,9.82
2022-09-23T03:26:44.190Z,11.73
2022-09-23T03:29:11.707Z,10.45
2022-09-23T03:31:42.815Z,9.30
2022-09-23T03:34:21.597Z,8.98
2022-09-23T03:37:03.514Z,8.63
2022-09-23T03:39:33.125Z,9.32
2022-09-23T03:42:02.670Z,10.35
2022-09-23T03:44:29.822Z,8.40
2022-09-23T03:47:02.429Z,7.72
2022-09-23T03:49:33.069Z,7.50
2022-09-23T03:52:01.068Z,10.35
2022-09-23T03:54:30.053Z,7.45
2022-09-23T03:56:58.465Z,8.20
2022-09-23T03:59:25.749Z,10.60
2022-09-23T04:01:53.341Z,11.02
2022-09-23T04:04:20.335Z,13.98
2022-09-23T04:06:47.155Z,8.95
2022-09-23T04:09:14.090Z,9.88
2022-09-23T04:11:41.047Z,8.77
2022-09-23T04:14:08.015Z,9.45
2022-09-23T04:16:35.426Z,10.30
2022-09-23T04:19:02.585Z,8.80
2022-09-23T04:21:31.223Z,9.90
2022-09-23T04:23:58.178Z,9.18
2022-09-23T04:26:25.223Z,10.75
2022-09-23T04:28:52.090Z,9.80
2022-09-23T04:31:19.127Z,8.90
2022-09-23T04:33:46.073Z,10.45
2022-09-23T04:36:12.882Z,10.60
2022-09-23T04:38:39.729Z,11.43
2022-09-23T04:41:09.574Z,9.05
2022-09-23T04:43:36.473Z,12.32
2022-09-23T04:46:05.536Z,10.73
2022-09-23T04:48:32.991Z,12.50
2022-09-23T04:51:07.118Z,10.32
2022-09-23T04:53:35.212Z,11.10
2022-09-23T04:56:02.772Z,10.40
2022-09-23T04:58:30.183Z,11.25
2022-09-23T05:01:01.715Z,12.80
2022-09-23T05:03:35.643Z,10.95
2022-09-23T05:08:29.821Z,11.05
2022-09-23T05:10:57.782Z,9.32
2022-09-23T05:13:24.797Z,9.35
2022-09-23T05:16:02.189Z,9.23
2022-09-23T05:18:33.066Z,9.35
2022-09-23T05:20:59.970Z,11.10
2022-09-23T05:23:27.586Z,9.60
2022-09-23T05:26:01.397Z,8.27
2022-09-23T05:28:32.932Z,9.57
2022-09-23T05:31:05.925Z,8.32
2022-09-23T05:33:33.590Z,9.57
2022-09-23T05:36:01.036Z,9.82
2022-09-23T05:38:28.607Z,11.45
2022-09-23T05:41:05.594Z,9.13
2022-09-23T05:43:32.776Z,9.13
2022-09-23T05:46:08.344Z,9.68
2022-09-23T05:48:36.556Z,9.32
2022-09-23T05:51:04.112Z,9.00
2022-09-23T05:53:33.141Z,8.65
2022-09-23T05:56:00.044Z,9.65
2022-09-23T05:58:28.047Z,10.50
2022-09-23T06:00:56.944Z,8.57
2022-09-23T06:03:26.864Z,9.25
2022-09-23T06:05:56.953Z,10.02
2022-09-23T06:08:23.920Z,9.50
2022-09-23T06:10:54.355Z,9.02
2022-09-23T06:13:21.825Z,9.07
2022-09-23T06:15:48.737Z,8.45
2022-09-23T06:18:15.733Z,9.88
2022-09-23T06:20:42.821Z,10.80
2022-09-23T06:23:11.075Z,10.35
2022-09-23T06:25:41.085Z,7.22
2022-09-23T06:28:12.286Z,9.30
2022-09-23T06:30:42.551Z,8.82
2022-09-23T06:33:10.125Z,10.25
2022-09-23T06:35:37.215Z,9.32
2022-09-23T06:38:08.066Z,9.20
2022-09-23T06:40:37.691Z,7.80
2022-09-23T06:43:04.704Z,9.45
2022-09-23T06:45:31.650Z,10.05
2022-09-23T06:47:58.584Z,8.13
2022-09-23T06:50:26.257Z,9.10
2022-09-23T06:52:56.433Z,8.68
2022-09-23T06:55:24.805Z,9.07
2022-09-23T06:57:51.739Z,7.70
2022-09-23T07:00:19.528Z,8.75
2022-09-23T07:02:49.421Z,8.98
2022-09-23T07:05:17.414Z,9.98
2022-09-23T07:07:44.801Z,10.07
2022-09-23T07:10:12.054Z,11.07
2022-09-23T07:12:39.384Z,11.35
2022-09-23T07:15:08.815Z,8.95
2022-09-23T07:17:35.927Z,10.00
2022-09-23T07:20:06.018Z,9.13
2022-09-23T07:22:33.142Z,11.45
2022-09-23T07:25:00.099Z,9.45
2022-09-23T07:27:28.091Z,9.93
2022-09-23T07:29:55.162Z,9.50
2022-09-23T07:32:22.896Z,10.48
2022-09-23T07:34:49.984Z,10.68
2022-09-23T07:37:17.746Z,10.77
2022-09-23T07:39:45.152Z,9.18
2022-09-23T07:42:14.483Z,10.55
2022-09-23T07:44:44.114Z,9.35
2022-09-23T07:47:11.170Z,9.85
2022-09-23T07:49:38.649Z,10.00
2022-09-23T07:52:05.802Z,9.75
2022-09-23T07:54:32.894Z,15.48
2022-09-23T07:57:00.280Z,14.13
2022-09-23T07:59:27.609Z,12.02
2022-09-23T08:01:56.716Z,11.82
2022-09-23T08:04:25.535Z,10.20
2022-09-23T08:07:00.342Z,8.05
2022-09-23T08:09:28.526Z,9.00
2022-09-23T08:11:55.718Z,9.48
2022-09-23T08:14:22.600Z,9.20
2022-09-23T08:16:49.757Z,9.68
2022-09-23T08:19:16.868Z,9.77
2022-09-23T08:21:46.305Z,9.73
2022-09-23T08:24:14.734Z,10.65
2022-09-23T08:26:41.851Z,10.30
2022-09-23T08:29:12.080Z,11.57
2022-09-23T08:31:39.019Z,11.70
2022-09-23T08:34:06.637Z,10.88
2022-09-23T08:36:34.381Z,12.68
2022-09-23T08:39:01.353Z,13.18
2022-09-23T08:41:46.777Z,15.07
2022-09-23T08:44:20.681Z,13.60
2022-09-23T08:47:06.403Z,16.35
2022-09-23T08:49:39.616Z,15.88
2022-09-23T08:52:10.186Z,18.38
2022-09-23T08:54:37.403Z,18.55
2022-09-23T08:57:05.724Z,19.67
2022-09-23T08:59:42.529Z,19.70
2022-09-23T09:02:20.983Z,19.83
2022-09-23T09:04:52.898Z,19.17
2022-09-23T09:07:41.709Z,20.63
2022-09-23T09:10:22.640Z,19.85
2022-09-23T09:12:51.924Z,19.75
2022-09-23T09:15:24.697Z,20.08
2022-09-23T09:18:01.673Z,21.58
2022-09-23T09:20:39.934Z,22.58
2022-09-23T09:23:27.042Z,21.67
2022-09-23T09:26:01.612Z,23.00
2022-09-23T09:28:31.229Z,24.85
2022-09-23T09:31:02.691Z,23.85
2022-09-23T09:33:37.016Z,26.50
2022-09-23T09:36:15.969Z,27.15
2022-09-23T09:38:44.158Z,24.08
2022-09-23T09:41:16.555Z,25.20
2022-09-23T09:43:55.086Z,25.58
2022-09-23T09:46:40.674Z,23.55
2022-09-23T09:49:11.981Z,25.63
2022-09-23T09:51:42.602Z,23.63
2022-09-23T09:54:19.470Z,25.38
2022-09-23T09:59:35.261Z,22.75
2022-09-23T10:02:31.778Z,23.05
2022-09-23T10:05:11.033Z,23.73
2022-09-23T10:07:37.917Z,22.23
2022-09-23T10:10:31.688Z,23.70
2022-09-23T10:13:14.568Z,21.00
2022-09-23T10:15:45.041Z,20.42
2022-09-23T10:18:19.686Z,20.40
2022-09-23T10:20:50.170Z,21.73
2022-09-23T10:23:22.918Z,18.83
2022-09-23T10:25:57.619Z,22.08
2022-09-23T10:28:43.402Z,19.90
2022-09-23T10:31:15.003Z,19.50
2022-09-23T10:33:47.030Z,18.77
2022-09-23T10:36:18.000Z,17.73
2022-09-23T10:38:47.659Z,15.80
2022-09-23T10:41:42.490Z,16.30
2022-09-23T10:44:39.779Z,15.18
2022-09-23T10:47:23.269Z,13.82
2022-09-23T10:49:51.803Z,14.35
2022-09-23T10:52:18.640Z,12.18
2022-09-23T10:55:04.184Z,15.93
2022-09-23T10:57:39.785Z,12.93
2022-09-23T11:00:22.658Z,12.82
2022-09-23T11:02:52.637Z,11.88
2022-09-23T11:05:28.601Z,14.45
2022-09-23T11:07:55.398Z,12.05
2022-09-23T11:10:46.536Z,13.25
2022-09-23T11:13:16.712Z,10.15
2022-09-23T11:15:48.969Z,11.00
2022-09-23T11:18:16.763Z,11.13
2022-09-23T11:20:43.642Z,9.77
2022-09-23T11:23:27.508Z,8.77
2022-09-23T11:26:09.228Z,7.93
2022-09-23T11:28:57.596Z,8.05
2022-09-23T11:31:27.347Z,9.13
2022-09-23T11:33:57.332Z,8.07
2022-09-23T11:36:24.271Z,9.73
2022-09-23T11:38:52.345Z,7.82
2022-09-23T11:41:30.149Z,8.35
2022-09-23T11:44:04.484Z,7.82
2022-09-23T11:46:34.651Z,8.13
2022-09-23T11:49:09.677Z,6.78
2022-09-23T11:51:42.711Z,6.78
2022-09-23T11:54:20.820Z,8.35
2022-09-23T11:56:53.326Z,6.95
2022-09-23T11:59:40.707Z,7.03
2022-09-23T12:02:30.617Z,5.47
2022-09-23T12:07:40.277Z,5.88
2022-09-23T12:10:08.213Z,6.32
2022-09-23T12:12:47.950Z,6.18
2022-09-23T12:15:27.451Z,5.60
2022-09-23T12:18:23.146Z,5.47
2022-09-23T12:21:45.865Z,5.32
2022-09-23T12:27:06.430Z,5.75
2022-09-23T12:29:35.895Z,4.70
2022-09-23T12:32:12.556Z,6.57
2022-09-23T12:34:43.859Z,6.25
2022-09-23T12:37:11.036Z,6.30
2022-09-23T12:39:38.689Z,4.78
2022-09-23T12:42:13.754Z,5.32
2022-09-23T12:44:42.396Z,5.32
2022-09-23T12:47:21.166Z,8.23
2022-09-23T12:49:48.506Z,4.85
2022-09-23T12:52:18.185Z,5.45
2022-09-23T12:54:46.765Z,5.20
2022-09-23T12:57:19.929Z,4.63
2022-09-23T13:00:05.955Z,4.70
2022-09-23T13:02:33.591Z,5.28
2022-09-23T13:05:42.023Z,4.78
2022-09-23T13:08:17.314Z,4.55
2022-09-23T13:10:54.805Z,3.50
2022-09-23T13:13:21.963Z,3.55
2022-09-23T13:15:49.049Z,3.33
2022-09-23T13:18:18.935Z,4.22
2022-09-23T13:20:46.977Z,3.70
2022-09-23T13:23:27.814Z,3.75
2022-09-23T13:25:56.303Z,3.58
2022-09-23T13:28:38.447Z,4.00
2022-09-23T13:31:14.204Z,3.78
2022-09-23T13:33:46.486Z,3.97
2022-09-23T13:36:14.896Z,2.97
2022-09-23T13:38:42.277Z,3.85
2022-09-23T13:41:14.278Z,5.22
2022-09-23T13:43:42.696Z,5.03
2022-09-23T13:46:13.449Z,3.85
2022-09-23T13:48:43.892Z,5.80
2022-09-23T13:51:11.674Z,3.97
2022-09-23T13:53:38.706Z,5.40
2022-09-23T13:56:05.605Z,4.50
2022-09-23T13:58:33.242Z,4.07
2022-09-23T14:01:00.280Z,4.22
2022-09-23T14:03:36.806Z,3.95
2022-09-23T14:06:17.991Z,4.43
2022-09-23T14:08:49.067Z,4.38
2022-09-23T14:11:17.402Z,4.38
2022-09-23T14:13:53.406Z,5.88
2022-09-23T14:16:25.985Z,5.10
2022-09-23T14:19:05.519Z,4.63
2022-09-23T14:21:43.631Z,5.15
2022-09-23T14:24:17.895Z,6.72
2022-09-23T14:26:49.244Z,4.65
2022-09-23T14:29:23.514Z,4.57
2022-09-23T14:32:00.886Z,4.15
2022-09-23T14:37:29.532Z,3.88
2022-09-23T14:39:59.286Z,4.60
2022-09-23T14:42:30.389Z,4.50
2022-09-23T14:47:32.457Z,5.05
2022-09-23T14:50:21.011Z,5.38
2022-09-23T14:53:00.960Z,5.72
2022-09-23T14:55:32.506Z,4.65
2022-09-23T14:58:07.356Z,4.60
2022-09-23T15:00:38.282Z,4.03
2022-09-23T15:03:14.720Z,4.32
2022-09-23T15:05:49.490Z,5.93
2022-09-23T15:08:24.685Z,4.07
2022-09-23T15:10:54.976Z,5.72
2022-09-23T15:13:32.199Z,5.07
2022-09-23T15:16:02.488Z,4.45
2022-09-23T15:18:39.707Z,4.22
2022-09-23T15:21:17.280Z,4.70
2022-09-23T15:23:48.736Z,4.10
2022-09-23T15:26:19.348Z,8.55
2022-09-23T15:28:50.264Z,4.55
2022-09-23T15:31:21.668Z,5.38
2022-09-23T15:33:52.484Z,4.30
2022-09-23T15:36:27.531Z,5.55
2022-09-23T15:39:07.852Z,5.45
2022-09-23T15:41:40.223Z,4.97
2022-09-23T15:44:16.166Z,7.55
2022-09-23T15:46:49.189Z,7.22
2022-09-23T15:49:26.433Z,5.75
2022-09-23T15:51:54.113Z,6.57
2022-09-23T15:54:23.868Z,5.38
2022-09-23T15:56:51.029Z,5.57
2022-09-23T15:59:18.194Z,6.07
2022-09-23T16:01:45.993Z,6.68
2022-09-23T16:04:15.670Z,6.20
2022-09-23T16:07:09.710Z,4.68
2022-09-23T16:10:02.501Z,5.22
2022-09-23T16:12:56.343Z,5.05
2022-09-23T16:15:29.818Z,7.13
2022-09-23T16:18:30.450Z,4.68
2022-09-23T16:28:16.134Z,4.97
2022-09-23T16:30:43.330Z,4.93
2022-09-23T16:36:29.805Z,6.20
2022-09-23T16:39:00.645Z,5.20
2022-09-23T16:42:14.769Z,5.93
2022-09-23T16:44:42.297Z,6.53
2022-09-23T16:45:53.833Z,4.82
2022-09-23T16:47:53.843Z,6.25
2022-09-23T16:56:53.534Z,5.82
2022-09-23T17:03:09.201Z,5.40
2022-09-23T17:09:02.988Z,5.97
2022-09-23T17:11:45.733Z,5.25
2022-09-23T17:14:48.071Z,6.22
2022-09-23T17:17:29.544Z,5.20
2022-09-23T17:20:17.503Z,5.82
2022-09-23T17:22:53.297Z,5.68
2022-09-23T17:25:44.315Z,6.95
2022-09-23T17:28:29.747Z,5.63
2022-09-23T17:36:51.697Z,6.68
2022-09-23T17:39:42.499Z,5.13
2022-09-23T17:45:37.204Z,7.25
2022-09-23T17:48:09.858Z,7.55
2022-09-23T17:57:05.677Z,8.75
2022-09-23T18:00:20.305Z,7.70
2022-09-23T18:03:15.272Z,6.07
2022-09-23T18:12:33.703Z,10.25
2022-09-23T18:15:43.243Z,8.10
2022-09-23T18:18:10.293Z,7.68
2022-09-23T18:21:18.937Z,7.60
2022-09-23T18:23:43.705Z,8.07
2022-09-23T18:26:30.415Z,7.22
2022-09-23T18:29:02.450Z,6.28
2022-09-23T18:31:43.835Z,6.15
2022-09-23T18:37:21.673Z,6.05
2022-09-23T18:39:57.381Z,5.32
2022-09-23T18:45:39.345Z,5.25
2022-09-23T18:48:39.239Z,5.85
2022-09-23T18:51:47.345Z,6.65
2022-09-23T18:54:45.252Z,9.50
2022-09-23T19:00:21.620Z,5.20
2022-09-23T19:02:53.596Z,5.45
2022-09-23T19:05:23.531Z,5.63
2022-09-23T19:11:28.646Z,6.57
2022-09-23T19:14:28.081Z,4.28
2022-09-23T19:17:11.828Z,4.38
2022-09-23T19:22:37.486Z,8.00
2022-09-23T19:25:47.051Z,6.15
2022-09-23T19:28:22.348Z,5.63
2022-09-23T19:31:02.134Z,5.80
2022-09-23T19:33:55.864Z,6.88
2022-09-23T19:40:02.578Z,7.20
2022-09-23T19:46:01.204Z,5.93
2022-09-23T19:49:02.554Z,6.47
2022-09-23T19:51:53.920Z,6.28
2022-09-23T19:54:24.773Z,7.05
2022-09-23T19:57:10.050Z,6.60
2022-09-23T19:59:43.656Z,5.95
2022-09-23T20:02:13.533Z,7.57
2022-09-23T20:10:14.522Z,5.45
2022-09-23T20:12:44.335Z,7.63
2022-09-23T20:15:11.974Z,8.70
2022-09-23T20:17:40.138Z,6.10
2022-09-23T20:20:07.806Z,9.38
2022-09-23T20:22:35.130Z,7.20
2022-09-23T20:25:02.640Z,6.85
2022-09-23T20:27:34.421Z,7.20
2022-09-23T20:30:07.709Z,5.75
2022-09-23T20:32:36.945Z,8.25
2022-09-23T20:35:06.964Z,6.32
2022-09-23T20:37:35.785Z,6.50
2022-09-23T20:40:07.435Z,7.38
2022-09-23T20:42:35.120Z,7.57
2022-09-23T20:45:04.663Z,5.45
2022-09-23T20:47:31.489Z,4.72
2022-09-23T20:49:58.627Z,5.85
2022-09-23T20:52:25.484Z,6.15
2022-09-23T20:54:52.759Z,6.60
2022-09-23T20:57:20.377Z,7.20
2022-09-23T20:59:50.203Z,6.03
2022-09-23T21:02:17.246Z,8.30
2022-09-23T21:04:46.358Z,7.25
2022-09-23T21:07:20.367Z,6.97
2022-09-23T21:09:47.370Z,7.70
2022-09-23T21:12:17.834Z,7.78
2022-09-23T21:14:45.694Z,5.90
2022-09-23T21:17:12.551Z,8.30
2022-09-23T21:19:40.054Z,6.32
2022-09-23T21:22:06.944Z,5.97
2022-09-23T21:25:08.476Z,7.60
2022-09-23T21:27:20.506Z,6.85
2022-09-23T21:29:47.388Z,6.68
2022-09-23T21:32:14.110Z,7.28
2022-09-23T21:34:41.416Z,7.53
2022-09-23T21:37:08.468Z,9.60
2022-09-23T21:39:38.040Z,8.02
2022-09-23T21:42:05.977Z,8.10
2022-09-23T21:44:33.194Z,6.55
2022-09-23T21:47:00.041Z,7.82
2022-09-23T21:49:26.884Z,5.97
2022-09-23T21:51:58.936Z,5.82
2022-09-23T21:54:25.909Z,7.20
2022-09-23T21:56:57.039Z,7.43
2022-09-23T21:59:23.860Z,5.72
2022-09-23T22:01:54.173Z,7.68
2022-09-23T22:04:21.296Z,6.90
2022-09-23T22:06:49.161Z,7.70
2022-09-23T22:09:21.439Z,8.05
2022-09-23T22:12:09.715Z,6.35
2022-09-23T22:14:37.020Z,7.53
2022-09-23T22:17:04.831Z,8.18
2022-09-23T22:19:33.297Z,7.55
2022-09-23T22:22:00.409Z,5.82
2022-09-23T22:24:27.559Z,7.85
2022-09-23T22:26:54.385Z,6.30
2022-09-23T22:29:39.760Z,8.18
2022-09-23T22:32:28.761Z,6.90
2022-09-23T22:34:56.092Z,6.65
2022-09-23T22:37:27.442Z,7.05
2022-09-23T22:42:24.274Z,5.65
2022-09-23T22:44:51.150Z,5.93
2022-09-23T22:47:18.631Z,6.97
2022-09-23T22:49:48.832Z,9.00
2022-09-23T22:52:26.719Z,7.22
2022-09-23T22:54:55.947Z,7.75
2022-09-23T22:57:25.008Z,5.60
2022-09-23T22:59:52.177Z,7.25
2022-09-23T23:02:21.519Z,5.82
2022-09-23T23:04:48.715Z,7.75
2022-09-23T23:07:19.923Z,6.03
2022-09-23T23:09:50.428Z,6.85
2022-09-23T23:12:20.127Z,6.57
2022-09-23T23:14:48.097Z,4.85
2022-09-23T23:17:15.117Z,8.30
2022-09-23T23:19:44.313Z,6.45
2022-09-23T23:22:13.686Z,5.95
2022-09-23T23:24:40.481Z,6.88
2022-09-23T23:27:07.275Z,5.50
2022-09-23T23:29:34.063Z,6.50
2022-09-23T23:32:00.931Z,6.97
2022-09-23T23:34:28.181Z,7.22
2022-09-23T23:36:57.381Z,7.38
2022-09-23T23:39:24.841Z,6.82
2022-09-23T23:41:55.533Z,6.35
2022-09-23T23:44:26.225Z,7.63
2022-09-23T23:46:54.661Z,6.57
2022-09-23T23:49:21.903Z,5.40
2022-09-23T23:51:48.941Z,6.20
2022-09-23T23:54:15.809Z,5.22
2022-09-23T23:56:45.473Z,5.80
2022-09-23T23:59:12.764Z,10.68
